Latest Weather Observations for Warracknabeal Airport

IDV60801

Issued at 5:32 am EDT Friday 24 November 2017 (issued every 30 minutes, with the page automatically refreshed every 10 minutes)

About weather observations | Map of weather stations | Latest weather observations for VIC | Other Formats
Station Details ID: 078018 Name: WARRACKNABEAL AIRPORT Lat: -36.32 Lon: 142.42 Height: 118.3 m
Data from the previous 72 hours. | See also: Recent months for locations in Victoria
Date/Time
EDT
Temp
°C
App
Temp
°C
Dew
Point
°C
Rel
Hum
%
Delta-T
°C
Wind Press
QNH
hPa
Press
MSL
hPa
Rain since
9am
mm
Dir  Spd
km/h
Gust
km/h
Spd
kts
Gust
kts
24/05:30am 19.5 18.2 11.3 59 4.5 SSE 9 11 5 6 1010.9 1010.7 0.0
24/05:00am 19.5 18.2 11.3 59 4.5 SE 9 11 5 6 1010.6 1010.3 0.0
24/04:30am 19.8 18.0 11.0 57 4.8 SE 11 15 6 8 1010.4 1010.1 0.0
24/04:00am 19.3 18.4 11.3 60 4.4 SE 7 9 4 5 1010.5 1010.2 0.0
24/03:30am 20.3 18.5 11.0 55 5.1 SE 11 15 6 8 1010.6 1010.3 0.0
24/03:00am 20.8 18.3 10.9 53 5.5 SE 15 19 8 10 1010.5 1010.2 0.0
24/02:30am 21.1 18.9 10.9 52 5.6 SE 13 19 7 10 1010.7 1010.5 0.0
24/02:00am 21.0 18.9 11.3 54 5.4 SE 13 15 7 8 1010.9 1010.7 0.0
24/01:30am 20.7 19.5 11.6 56 5.1 SE 9 13 5 7 1010.9 1010.7 0.0
24/01:00am 21.5 19.2 11.8 54 5.5 SSE 15 19 8 10 1011.0 1010.8 0.0
24/12:30am 21.7 19.9 12.0 54 5.5 S 13 15 7 8 1011.1 1010.9 0.0
24/12:00am 20.0 19.6 12.3 61 4.3 SSW 6 9 3 5 1011.2 1011.0 0.0
 
Date/Time
EDT
Temp
°C
App
Temp
°C
Dew
Point
°C
Rel
Hum
%
Delta-T
°C
Wind Press
QNH
hPa
Press
MSL
hPa
Rain since
9am
mm
Dir  Spd
km/h
Gust
km/h
Spd
kts
Gust
kts
23/11:30pm 20.5 18.7 12.0 58 4.8 SSW 13 19 7 10 1011.0 1010.8 0.0
23/11:00pm 20.3 18.5 12.0 59 4.7 SSW 13 17 7 9 1011.0 1010.8 0.0
23/10:30pm 20.6 18.0 12.1 58 4.8 SSW 17 20 9 11 1010.9 1010.7 0.0
23/10:00pm 21.6 19.0 11.9 54 5.5 S 17 20 9 11 1011.0 1010.8 0.0
23/09:30pm 22.2 18.9 11.6 51 6.0 SSW 20 28 11 15 1010.5 1010.2 0.0
23/09:00pm 23.3 17.6 11.0 46 6.9 SW 32 41 17 22 1010.4 1010.1 0.0
23/08:30pm 26.0 20.4 10.2 37 8.8 WSW 30 50 16 27 1010.0 1009.7 0.0
23/08:29pm 26.5 20.9 10.2 36 9.1 WSW 30 50 16 27 1010.0 1009.7 0.0
23/08:00pm 28.0 23.2 11.5 35 9.5 W 28 37 15 20 1009.0 1008.7 0.0
23/07:30pm 29.2 22.9 8.8 28 11.3 WNW 32 44 17 24 1008.3 1008.0 0.0
23/07:08pm 30.5 24.8 8.3 25 12.3 WNW 28 48 15 26 1007.5 1007.3 0.0
23/07:00pm 31.7 26.5 3.7 17 14.5 WNW 20 30 11 16 1007.4 1007.2 0.0
23/06:30pm 32.8 26.3 2.8 15 15.4 WNW 26 44 14 24 1007.0 1006.8 0.0
23/06:00pm 33.5 26.7 3.3 15 15.7 WNW 28 41 15 22 1007.1 1006.9 0.0
23/05:35pm 33.4 26.6 3.3 15 15.6 NW 28 46 15 25 1007.0 1006.8 0.0
23/05:30pm 34.0 27.0 1.7 13 16.4 NW 28 43 15 23 1007.0 1006.8 0.0
23/05:07pm 33.3 26.2 1.2 13 16.1 NW 28 46 15 25 1006.8 1006.6 0.0
23/05:00pm 35.6 27.8 1.8 12 17.4 NW 32 46 17 25 1006.8 1006.6 0.0
23/04:45pm 35.4 28.4 1.7 12 17.2 NNW 28 46 15 25 1006.8 1006.6 0.0
23/04:30pm 33.8 28.1 0.5 12 16.5 NNW 20 32 11 17 1007.0 1006.8 0.0
23/04:00pm 33.2 28.0 0.0 12 16.3 NNW 17 32 9 17 1007.2 1007.0 0.0
23/03:30pm 33.5 27.4 0.2 12 16.4 NW 22 33 12 18 1007.5 1007.3 0.0
23/03:00pm 34.7 29.1 -0.1 11 17.2 W 19 30 10 16 1007.7 1007.5 0.0
23/02:30pm 33.5 25.8 0.2 12 16.4 NW 30 41 16 22 1008.0 1007.8 0.0
23/02:00pm 34.4 28.8 0.9 12 16.8 NNW 20 30 11 16 1008.4 1008.1 0.0
23/01:30pm 33.4 29.1 1.3 13 16.1 NNW 13 24 7 13 1008.7 1008.4 0.0
23/01:00pm 33.5 29.0 2.4 14 15.9 NNW 15 20 8 11 1008.9 1008.6 0.0
23/12:30pm 33.7 28.5 2.5 14 16.0 NNW 19 33 10 18 1009.2 1008.9 0.0
23/12:00pm 33.9 28.2 2.7 14 16.1 NNW 22 35 12 19 1009.5 1009.2 0.0
23/11:30am 32.0 26.5 3.9 17 14.6 N 22 32 12 17 1009.9 1009.6 0.0
23/11:00am 32.6 27.6 4.4 17 14.8 NNW 20 30 11 16 1010.0 1009.7 0.0
23/10:30am 32.1 28.5 4.8 18 14.4 N 13 28 7 15 1009.9 1009.6 0.0
23/10:00am 30.3 25.4 4.9 20 13.3 N 20 26 11 14 1010.0 1009.7 0.0
23/09:30am 30.0 25.7 5.3 21 13.0 NNE 17 24 9 13 1010.2 1009.9 0.0
23/09:00am 27.6 23.5 6.4 26 11.2 NNE 17 24 9 13 1010.3 1010.0 0.0
23/08:30am 24.7 21.8 8.2 35 8.8 ENE 13 15 7 8 1010.2 1009.9 0.0
23/08:00am 22.5 19.5 7.5 38 7.9 E 13 17 7 9 1010.4 1010.1 0.0
23/07:30am 21.2 18.3 8.1 43 6.9 E 13 15 7 8 1010.2 1009.9 0.0
23/07:00am 19.5 18.0 9.1 51 5.5 ENE 7 9 4 5 1010.0 1009.7 0.0
23/06:30am 18.1 15.3 8.4 53 5.0 ENE 13 17 7 9 1009.8 1009.5 0.0
23/06:00am 18.4 15.4 7.5 49 5.6 N 13 20 7 11 1009.6 1009.3 0.0
23/05:30am 16.9 13.9 7.5 54 4.7 ENE 13 15 7 8 1009.4 1009.1 0.0
23/05:00am 17.5 14.8 7.3 51 5.2 ENE 11 15 6 8 1009.2 1008.9 0.0
23/04:30am 17.9 14.4 7.3 50 5.4 ENE 15 17 8 9 1009.1 1008.8 0.0
23/04:00am 18.2 14.3 7.0 48 5.7 NE 17 17 9 9 1009.2 1008.9 0.0
23/03:30am 19.6 15.6 6.7 43 6.5 NE 17 20 9 11 1009.2 1008.9 0.0
23/03:00am 20.5 15.9 6.5 40 7.1 NE 20 24 11 13 1009.3 1009.0 0.0
23/02:30am 21.7 16.6 6.0 36 7.9 NE 22 28 12 15 1009.4 1009.1 0.0
23/02:00am 21.9 16.8 6.2 36 8.0 ENE 22 28 12 15 1009.6 1009.3 0.0
23/01:30am 20.4 15.8 6.4 40 7.1 ENE 20 22 11 12 1009.9 1009.6 0.0
23/01:00am 20.6 15.9 6.2 39 7.3 ENE 20 22 11 12 1010.3 1010.0 0.0
23/12:30am 20.3 15.7 6.3 40 7.1 ENE 20 20 11 11 1010.4 1010.1 0.0
23/12:00am 20.3 16.1 5.9 39 7.2 ENE 17 19 9 10 1010.5 1010.2 0.0
 
Date/Time
EDT
Temp
°C
App
Temp
°C
Dew
Point
°C
Rel
Hum
%
Delta-T
°C
Wind Press
QNH
hPa
Press
MSL
hPa
Rain since
9am
mm
Dir  Spd
km/h
Gust
km/h
Spd
kts
Gust
kts
22/11:30pm 21.2 17.0 5.6 36 7.8 ENE 17 20 9 11 1010.6 1010.3 0.0
22/11:00pm 20.7 16.5 5.5 37 7.6 ENE 17 19 9 10 1010.6 1010.3 0.0
22/10:30pm 20.6 16.4 5.8 38 7.4 ENE 17 20 9 11 1010.8 1010.6 0.0
22/10:00pm 21.2 17.0 5.6 36 7.8 ENE 17 19 9 10 1010.7 1010.5 0.0
22/09:30pm 21.6 18.0 5.1 34 8.2 ENE 13 15 7 8 1010.6 1010.3 0.0
22/09:00pm 22.5 18.1 5.0 32 8.7 ENE 17 17 9 9 1010.3 1010.0 0.0
22/08:30pm 25.0 20.8 3.6 25 10.6 NE 15 17 8 9 1010.2 1009.9 0.0
22/08:00pm 28.7 23.9 2.8 19 13.0 NE 17 20 9 11 1010.1 1009.8 0.0
22/07:30pm 31.3 25.0 1.6 15 14.8 NE 24 32 13 17 1009.8 1009.5 0.0
22/07:00pm 30.3 25.0 1.7 16 14.2 NNE 19 22 10 12 1009.8 1009.5 0.0
22/06:30pm 31.2 25.8 1.5 15 14.7 NE 19 28 10 15 1009.8 1009.5 0.0
22/06:00pm 32.4 27.3 0.5 13 15.7 NNE 17 26 9 14 1009.8 1009.5 0.0
22/05:30pm 32.4 27.4 1.5 14 15.5 NE 17 24 9 13 1010.1 1009.8 0.0
22/05:00pm 33.2 27.7 2.1 14 15.8 ENE 20 26 11 14 1010.2 1009.9 0.0
22/04:30pm 33.7 29.1 1.5 13 16.2 NNE 15 30 8 16 1010.5 1010.2 0.0
22/04:00pm 34.7 29.3 2.3 13 16.7 N 20 33 11 18 1010.8 1010.6 0.0
22/03:30pm 34.1 28.8 2.8 14 16.2 NE 20 37 11 20 1011.2 1011.0 0.0
22/03:00pm 34.2 27.7 2.9 14 16.2 NE 26 41 14 22 1011.6 1011.4 0.0
22/02:30pm 35.2 29.8 2.6 13 16.9 N 20 41 11 22 1011.9 1011.7 0.0
22/02:00pm 34.7 28.5 2.3 13 16.7 NNE 24 37 13 20 1012.4 1012.2 0.0
22/01:30pm 34.1 27.8 1.8 13 16.4 NNE 24 39 13 21 1012.9 1012.7 0.0
22/01:00pm 33.0 28.1 2.0 14 15.7 N 17 28 9 15 1013.4 1013.2 0.0
22/12:30pm 34.0 29.6 2.8 14 16.1 N 15 32 8 17 1013.9 1013.7 0.0
22/12:00pm 33.1 27.4 3.0 15 15.5 N 22 33 12 18 1014.3 1014.1 0.0
22/11:30am 32.8 27.1 2.8 15 15.4 N 22 39 12 21 1014.5 1014.3 0.0
22/11:00am 31.7 26.2 1.9 15 14.9 N 20 32 11 17 1014.9 1014.7 0.0
22/10:30am 31.3 25.5 4.2 18 14.1 N 24 32 13 17 1015.1 1014.9 0.0
22/10:00am 30.8 25.9 5.3 20 13.5 N 20 28 11 15 1015.3 1015.1 0.0
22/09:30am 29.1 23.7 4.6 21 12.7 NNE 22 30 12 16 1015.5 1015.3 0.0
22/09:00am 27.5 22.9 5.7 25 11.4 NNE 19 22 10 12 1015.5 1015.3 0.0
22/08:30am 25.1 19.9 5.3 28 10.1 NE 22 28 12 15 1015.5 1015.3 0.0
22/08:00am 22.5 18.2 7.1 37 8.0 ENE 19 24 10 13 1015.2 1015.0 0.0
22/07:30am 19.4 15.4 8.1 48 5.9 ENE 19 22 10 12 1015.2 1015.0 0.0
22/07:00am 16.6 14.8 9.3 62 3.8 ENE 9 13 5 7 1015.0 1014.8 0.0
22/06:30am 14.0 11.2 8.4 69 2.8 ENE 13 13 7 7 1014.8 1014.6 0.0
22/06:00am 14.6 12.5 8.1 65 3.3 ENE 9 11 5 6 1014.7 1014.5 0.0
22/05:30am 15.4 13.2 7.7 60 3.9 ENE 9 11 5 6 1014.5 1014.3 0.0
22/05:00am 15.1 12.8 7.6 61 3.7 ENE 9 11 5 6 1014.3 1014.1 0.0
22/04:30am 15.5 13.3 7.8 60 3.9 ENE 9 11 5 6 1014.3 1014.1 0.0
22/04:00am 15.7 13.2 8.0 60 3.9 ENE 11 15 6 8 1014.3 1014.1 0.0
22/03:30am 16.6 13.6 7.8 56 4.5 ENE 13 17 7 9 1014.5 1014.3 0.0
22/03:00am 15.5 12.5 7.8 60 3.9 ENE 13 13 7 7 1014.6 1014.4 0.0
22/02:30am 16.1 13.4 7.3 56 4.4 ENE 11 15 6 8 1014.9 1014.7 0.0
22/02:00am 16.9 14.1 7.0 52 4.9 ENE 11 15 6 8 1015.0 1014.8 0.0
22/01:30am 17.8 13.9 7.2 50 5.3 ENE 17 19 9 10 1015.1 1014.9 0.0
22/01:00am 18.3 14.4 7.1 48 5.7 ENE 17 19 9 10 1015.3 1015.1 0.0
22/12:30am 17.2 15.2 7.3 52 5.0 ENE 7 11 4 6 1015.6 1015.4 0.0
22/12:00am 19.5 15.9 6.6 43 6.5 ENE 15 17 8 9 1015.6 1015.4 0.0
 
Date/Time
EDT
Temp
°C
App
Temp
°C
Dew
Point
°C
Rel
Hum
%
Delta-T
°C
Wind Press
QNH
hPa
Press
MSL
hPa
Rain since
9am
mm
Dir  Spd
km/h
Gust
km/h
Spd
kts
Gust
kts
21/11:30pm 20.7 16.7 6.6 40 7.2 ENE 17 20 9 11 1015.6 1015.4 0.0
21/11:00pm 19.5 16.2 7.9 47 6.0 NE 15 19 8 10 1015.7 1015.5 0.0
21/10:30pm 20.8 17.7 7.4 42 6.9 ENE 13 15 7 8 1015.9 1015.7 0.0
21/10:00pm 21.5 18.6 6.6 38 7.6 ENE 11 13 6 7 1015.7 1015.5 0.0
21/09:30pm 22.5 19.2 6.3 35 8.3 NE 13 15 7 8 1015.4 1015.2 0.0
21/09:00pm 22.8 19.0 5.7 33 8.7 NE 15 17 8 9 1015.2 1015.0 0.0
21/08:30pm 25.5 21.9 5.1 27 10.4 NE 13 15 7 8 1015.2 1015.0 0.0
21/08:00pm 29.3 24.1 3.3 19 13.1 NE 20 26 11 14 1015.0 1014.8 0.0
21/07:30pm 31.2 25.7 4.1 18 14.1 NNE 22 28 12 15 1014.7 1014.5 0.0
21/07:00pm 32.2 26.2 3.2 16 14.9 NNE 24 30 13 16 1014.4 1014.2 0.0
21/06:30pm 32.7 26.4 1.7 14 15.6 NNE 24 32 13 17 1014.4 1014.2 0.0
21/06:00pm 33.0 26.0 2.0 14 15.7 NE 28 37 15 20 1014.5 1014.3 0.0
21/05:30pm 33.4 26.8 2.3 14 15.9 NNE 26 37 14 20 1014.7 1014.5 0.0
21/05:00pm 33.7 27.2 2.5 14 16.0 ENE 26 41 14 22 1014.8 1014.6 0.0
21/04:36pm 34.3 27.3 2.0 13 16.5 NE 28 46 15 25 1015.0 1014.8 0.0
21/04:30pm 34.1 27.8 1.8 13 16.4 NNE 24 39 13 21 1015.0 1014.8 0.0
21/04:00pm 33.8 27.5 1.6 13 16.3 NE 24 44 13 24 1015.4 1015.2 0.0
21/03:30pm 34.1 27.3 0.7 12 16.7 N 26 39 14 21 1015.6 1015.4 0.0
21/03:00pm 33.8 27.5 1.6 13 16.3 NNE 24 35 13 19 1015.9 1015.7 0.0
21/02:34pm 33.8 27.7 2.6 14 16.0 NNE 24 48 13 26 1016.1 1015.9 0.0
21/02:30pm 33.2 27.0 2.1 14 15.8 NNE 24 37 13 20 1016.3 1016.1 0.0
21/02:00pm 33.4 27.4 3.3 15 15.6 NNE 24 37 13 20 1016.9 1016.7 0.0
21/01:30pm 32.7 27.1 3.6 16 15.1 N 22 39 12 21 1017.3 1017.0 0.0
21/01:00pm 32.8 28.0 4.6 17 14.9 NE 19 33 10 18 1017.7 1017.4 0.0
21/12:30pm 32.3 27.4 5.0 18 14.5 N 20 30 11 16 1018.0 1017.8 0.0
21/12:00pm 32.0 26.3 4.7 18 14.3 N 24 39 13 21 1018.4 1018.2 0.0
21/11:30am 32.0 27.3 6.2 20 13.9 N 20 35 11 19 1018.6 1018.4 0.0
21/11:00am 30.4 25.6 5.6 21 13.1 NNE 20 35 11 19 1018.9 1018.7 0.0
21/10:30am 30.4 25.5 7.0 23 12.7 N 22 32 12 17 1019.1 1018.9 0.0
21/10:00am 29.4 25.3 7.9 26 11.7 N 19 28 10 15 1019.2 1019.0 0.0
21/09:30am 27.7 24.0 8.1 29 10.7 N 17 24 9 13 1019.3 1019.1 0.0
21/09:00am 25.7 21.8 7.3 31 9.7 NNE 17 20 9 11 1019.5 1019.3 0.0
21/08:30am 24.0 19.8 8.4 37 8.4 NE 20 28 11 15 1019.4 1019.2 0.0
21/08:00am 21.7 18.2 8.9 44 6.8 NE 17 22 9 12 1019.4 1019.2 0.0
21/07:30am 19.3 16.6 8.9 51 5.5 ENE 13 17 7 9 1019.2 1019.0 0.0
21/07:00am 15.6 14.7 9.3 66 3.3 E 4 7 2 4 1019.0 1018.8 0.0
21/06:30am 14.0 12.4 8.8 71 2.6 E 7 13 4 7 1018.8 1018.6 0.0
21/06:00am 14.6 12.9 8.5 67 3.1 E 7 11 4 6 1018.5 1018.3 0.0

Other Formats:

Comma delimited format used in spreadsheet applications
http://www.bom.gov.au/fwo/IDV60801/IDV60801.94920.axf

JavaScript Object Notation format (JSON) in row-major order
http://www.bom.gov.au/fwo/IDV60801/IDV60801.94920.json